Washington, DC

6:02 PM EDT on September 03, 2015 (GMT -0400)
Eckington Pl, NE | | Change Station
CLOSE
Current Station
Personal Weather Station
Location: Washington, DC
Elevation: 90 ft
Nearby Weather Stations
Active Advisory: Severe Thunderstorm Warning

Elev 90 ft 38.91 °N, 77.01 °W | Updated 3 minutes ago

Partly Cloudy
Partly Cloudy
86.7 °F
Feels Like 92 °F
N
5.0
Wind Variable Wind from NE
Gusts 17.0 mph

Today
High -- | Low -- °F
--% Chance of Precip.
Yesterday
High -- | Low -- °F
Precip. -- in
6:38 AM 7:35 PM
Waning Gibbous, 66% visible
Pressure 29.86 in
Visibility 10.0 miles
Clouds Mostly Cloudy 5500 ft
Mostly Cloudy 8000 ft
Mostly Cloudy 25000 ft
Heat Index 92 °F
Dew Point 71 °F
Humidity 59%
Rainfall Not available.
Snow Depth Not available.
UV 1 out of 12
Pollen 10.50 out of 12
Air Quality Not available.
Flu Activity Not available.
SPECI KDCA 032159Z 15013G21KT 10SM -TSRA BKN055CB BKN080 BKN250 29/19 A2986 RMK AO2 WSHFT 2143 RAB58 OCNL LTGICCG VC E-SE TS E-SE MOV SE P0000
Pressure 29.86 in
Visibility 10.0 miles
Clouds Mostly Cloudy 5500 ft
Mostly Cloudy 8000 ft
Mostly Cloudy 25000 ft
Heat Index 92 °F
Dew Point 71 °F
Humidity 59%
Rainfall Not available.
Snow Depth Not available.
UV 1 out of 12
Pollen 10.50 out of 12
Air Quality Not available.
Flu Activity Not available.
SPECI KDCA 032159Z 15013G21KT 10SM -TSRA BKN055CB BKN080 BKN250 29/19 A2986 RMK AO2 WSHFT 2143 RAB58 OCNL LTGICCG VC E-SE TS E-SE MOV SE P0000

10-Day Weather Forecast

×

Almanac

Astronomy

Sep. 03, 2015 Rise Set
Actual Time
Civil Twilight
Nautical Twilight
Astronomical Twilight
Moon
Length of Visible Light
Length of Day
Tomorrow will be .
, % of the Moon is Illuminated

Today's Extremes

State Highs State Lows

Community

WunderPhotos

Upload Photos

1,852,046 photos uploaded!

WunderBlogs® & News

Nearby

Air Quality

  Air Quality AQ Index Pollutant
Not available.

Snow Depth

Station Depth Elevation

Earthquake Activity

City Distance Mag. Time & Date
Minimum magnitude displayed is 2.5.

Coastal Water Temperatures

Place Temperature

Stations

Nearby Weather Stations

Station Location Temp. Windchill Dew Point Humidity Wind Precip. Elev Updated Type
                   
Severe Thunderstorm Warning
Statement as of 5:54 PM EDT on September 03, 2015

... The Severe Thunderstorm Warning for the southeastern District of
Columbia and west central Prince Georges counties will expire at 600
PM EDT...

the storm which prompted the warning has weakened below severe
limits... and no longer poses an immediate threat to life or property.
Therefore the warning will be allowed to expire.

Lat... Lon 3883 7702 3888 7692 3882 7682 3873 7696
time... Mot... loc 2152z 322deg 13kt 3880 7694


Rcm